sensor_id;sensor_type;location;lat;lon;timestamp;P1;durP1;ratioP1;P2;durP2;ratioP2
5549;SDS011;2798;42.716;23.256;2023-05-10T00:01:39;2.90;;;2.63;;
5549;SDS011;2798;42.716;23.256;2023-05-10T00:04:05;2.67;;;2.47;;
5549;SDS011;2798;42.716;23.256;2023-05-10T00:06:30;2.17;;;1.97;;
5549;SDS011;2798;42.716;23.256;2023-05-10T00:08:56;2.70;;;2.50;;
5549;SDS011;2798;42.716;23.256;2023-05-10T00:11:21;3.40;;;2.40;;
5549;SDS011;2798;42.716;23.256;2023-05-10T00:13:47;2.50;;;2.30;;
5549;SDS011;2798;42.716;23.256;2023-05-10T00:16:12;3.53;;;2.17;;
5549;SDS011;2798;42.716;23.256;2023-05-10T00:18:38;2.80;;;2.60;;
5549;SDS011;2798;42.716;23.256;2023-05-10T00:21:03;3.13;;;2.47;;
5549;SDS011;2798;42.716;23.256;2023-05-10T00:23:29;2.77;;;2.57;;
5549;SDS011;2798;42.716;23.256;2023-05-10T00:25:54;3.13;;;2.30;;
5549;SDS011;2798;42.716;23.256;2023-05-10T00:28:19;3.03;;;2.70;;
5549;SDS011;2798;42.716;23.256;2023-05-10T00:30:44;3.07;;;2.77;;
5549;SDS011;2798;42.716;23.256;2023-05-10T00:33:10;3.20;;;2.90;;
5549;SDS011;2798;42.716;23.256;2023-05-10T00:35:36;3.60;;;3.30;;
5549;SDS011;2798;42.716;23.256;2023-05-10T00:38:03;3.87;;;3.30;;
5549;SDS011;2798;42.716;23.256;2023-05-10T00:40:28;6.10;;;3.00;;
5549;SDS011;2798;42.716;23.256;2023-05-10T00:42:53;3.50;;;3.20;;
5549;SDS011;2798;42.716;23.256;2023-05-10T00:45:19;3.57;;;3.20;;
5549;SDS011;2798;42.716;23.256;2023-05-10T00:47:44;4.50;;;3.50;;
5549;SDS011;2798;42.716;23.256;2023-05-10T00:50:09;4.03;;;3.00;;
5549;SDS011;2798;42.716;23.256;2023-05-10T00:52:35;6.87;;;4.40;;
5549;SDS011;2798;42.716;23.256;2023-05-10T00:55:00;3.40;;;3.10;;
5549;SDS011;2798;42.716;23.256;2023-05-10T00:57:26;4.10;;;3.20;;
5549;SDS011;2798;42.716;23.256;2023-05-10T00:59:51;5.33;;;3.20;;
5549;SDS011;2798;42.716;23.256;2023-05-10T01:02:17;4.03;;;3.50;;
5549;SDS011;2798;42.716;23.256;2023-05-10T01:04:42;3.60;;;3.30;;
5549;SDS011;2798;42.716;23.256;2023-05-10T01:07:08;4.00;;;3.60;;
5549;SDS011;2798;42.716;23.256;2023-05-10T01:09:33;4.23;;;3.67;;
5549;SDS011;2798;42.716;23.256;2023-05-10T01:11:58;3.10;;;2.90;;
5549;SDS011;2798;42.716;23.256;2023-05-10T01:14:24;4.67;;;3.80;;
5549;SDS011;2798;42.716;23.256;2023-05-10T01:16:50;5.47;;;3.97;;
5549;SDS011;2798;42.716;23.256;2023-05-10T01:19:19;4.50;;;4.10;;
5549;SDS011;2798;42.716;23.256;2023-05-10T01:31:57;4.27;;;3.87;;
5549;SDS011;2798;42.716;23.256;2023-05-10T01:37:20;4.13;;;3.77;;
5549;SDS011;2798;42.716;23.256;2023-05-10T01:39:58;4.53;;;4.13;;
5549;SDS011;2798;42.716;23.256;2023-05-10T01:42:29;4.07;;;3.77;;
5549;SDS011;2798;42.716;23.256;2023-05-10T01:45:01;4.70;;;3.47;;
5549;SDS011;2798;42.716;23.256;2023-05-10T01:50:29;3.30;;;3.10;;
5549;SDS011;2798;42.716;23.256;2023-05-10T01:52:55;3.70;;;3.40;;
5549;SDS011;2798;42.716;23.256;2023-05-10T01:55:21;4.10;;;3.03;;
5549;SDS011;2798;42.716;23.256;2023-05-10T01:57:48;3.77;;;3.47;;
5549;SDS011;2798;42.716;23.256;2023-05-10T02:00:16;3.43;;;3.23;;
5549;SDS011;2798;42.716;23.256;2023-05-10T02:02:44;3.40;;;3.20;;
5549;SDS011;2798;42.716;23.256;2023-05-10T02:05:09;3.40;;;3.10;;
5549;SDS011;2798;42.716;23.256;2023-05-10T02:07:37;5.27;;;3.53;;
5549;SDS011;2798;42.716;23.256;2023-05-10T02:10:02;3.60;;;3.30;;
5549;SDS011;2798;42.716;23.256;2023-05-10T02:12:29;3.43;;;3.13;;
5549;SDS011;2798;42.716;23.256;2023-05-10T02:14:56;3.37;;;3.17;;
5549;SDS011;2798;42.716;23.256;2023-05-10T02:17:22;3.27;;;2.97;;
5549;SDS011;2798;42.716;23.256;2023-05-10T02:19:48;3.20;;;3.00;;
5549;SDS011;2798;42.716;23.256;2023-05-10T02:22:13;3.90;;;3.30;;
5549;SDS011;2798;42.716;23.256;2023-05-10T02:24:41;2.90;;;2.70;;
5549;SDS011;2798;42.716;23.256;2023-05-10T02:27:06;3.40;;;2.90;;
5549;SDS011;2798;42.716;23.256;2023-05-10T02:29:32;3.93;;;3.00;;
5549;SDS011;2798;42.716;23.256;2023-05-10T02:31:58;3.30;;;3.10;;
5549;SDS011;2798;42.716;23.256;2023-05-10T02:34:25;3.47;;;3.20;;
5549;SDS011;2798;42.716;23.256;2023-05-10T02:36:51;3.70;;;3.10;;
5549;SDS011;2798;42.716;23.256;2023-05-10T02:39:17;3.23;;;3.00;;
5549;SDS011;2798;42.716;23.256;2023-05-10T02:41:44;3.10;;;2.63;;
5549;SDS011;2798;42.716;23.256;2023-05-10T02:44:10;5.77;;;2.93;;
5549;SDS011;2798;42.716;23.256;2023-05-10T02:46:36;3.33;;;3.03;;
5549;SDS011;2798;42.716;23.256;2023-05-10T02:49:02;3.30;;;3.00;;
5549;SDS011;2798;42.716;23.256;2023-05-10T02:51:28;3.00;;;2.60;;
5549;SDS011;2798;42.716;23.256;2023-05-10T02:53:56;2.80;;;2.63;;
5549;SDS011;2798;42.716;23.256;2023-05-10T02:56:25;4.30;;;3.00;;
5549;SDS011;2798;42.716;23.256;2023-05-10T02:58:53;2.80;;;2.60;;
5549;SDS011;2798;42.716;23.256;2023-05-10T03:01:19;3.40;;;3.10;;
5549;SDS011;2798;42.716;23.256;2023-05-10T03:03:44;3.37;;;3.07;;
5549;SDS011;2798;42.716;23.256;2023-05-10T03:06:09;3.13;;;2.83;;
5549;SDS011;2798;42.716;23.256;2023-05-10T03:08:35;3.20;;;2.83;;
5549;SDS011;2798;42.716;23.256;2023-05-10T03:16:06;5.40;;;3.20;;
5549;SDS011;2798;42.716;23.256;2023-05-10T03:18:44;3.17;;;2.80;;
5549;SDS011;2798;42.716;23.256;2023-05-10T03:21:10;3.10;;;2.80;;
5549;SDS011;2798;42.716;23.256;2023-05-10T03:23:47;3.40;;;3.10;;
5549;SDS011;2798;42.716;23.256;2023-05-10T03:26:15;4.13;;;3.40;;
5549;SDS011;2798;42.716;23.256;2023-05-10T03:28:42;3.67;;;2.97;;
5549;SDS011;2798;42.716;23.256;2023-05-10T03:31:08;3.43;;;2.60;;
5549;SDS011;2798;42.716;23.256;2023-05-10T03:33:33;3.43;;;3.10;;
5549;SDS011;2798;42.716;23.256;2023-05-10T03:35:59;3.13;;;2.90;;
5549;SDS011;2798;42.716;23.256;2023-05-10T03:38:24;3.90;;;3.50;;
5549;SDS011;2798;42.716;23.256;2023-05-10T03:40:49;3.50;;;3.20;;
5549;SDS011;2798;42.716;23.256;2023-05-10T03:43:15;4.73;;;3.20;;
5549;SDS011;2798;42.716;23.256;2023-05-10T03:45:40;3.50;;;3.20;;
5549;SDS011;2798;42.716;23.256;2023-05-10T03:48:05;6.63;;;4.20;;
5549;SDS011;2798;42.716;23.256;2023-05-10T03:50:30;4.57;;;3.90;;
5549;SDS011;2798;42.716;23.256;2023-05-10T03:52:56;3.77;;;3.47;;
5549;SDS011;2798;42.716;23.256;2023-05-10T03:55:22;3.60;;;3.27;;
5549;SDS011;2798;42.716;23.256;2023-05-10T03:57:47;4.10;;;3.70;;
5549;SDS011;2798;42.716;23.256;2023-05-10T04:00:14;5.93;;;3.50;;
5549;SDS011;2798;42.716;23.256;2023-05-10T04:02:39;3.90;;;3.20;;
5549;SDS011;2798;42.716;23.256;2023-05-10T04:05:05;3.70;;;3.40;;
5549;SDS011;2798;42.716;23.256;2023-05-10T04:07:30;3.30;;;3.00;;
5549;SDS011;2798;42.716;23.256;2023-05-10T04:09:55;4.07;;;3.77;;
5549;SDS011;2798;42.716;23.256;2023-05-10T04:12:21;3.90;;;3.40;;
5549;SDS011;2798;42.716;23.256;2023-05-10T04:14:46;4.60;;;3.90;;
5549;SDS011;2798;42.716;23.256;2023-05-10T04:17:11;4.30;;;3.73;;
5549;SDS011;2798;42.716;23.256;2023-05-10T04:19:36;7.83;;;3.90;;
5549;SDS011;2798;42.716;23.256;2023-05-10T04:22:02;3.63;;;3.33;;
5549;SDS011;2798;42.716;23.256;2023-05-10T04:24:27;3.70;;;3.40;;
5549;SDS011;2798;42.716;23.256;2023-05-10T04:26:53;4.00;;;3.40;;
5549;SDS011;2798;42.716;23.256;2023-05-10T04:29:19;19.80;;;5.60;;
5549;SDS011;2798;42.716;23.256;2023-05-10T04:31:44;11.80;;;4.03;;
5549;SDS011;2798;42.716;23.256;2023-05-10T04:34:09;11.23;;;3.80;;
5549;SDS011;2798;42.716;23.256;2023-05-10T04:36:34;7.77;;;3.33;;
5549;SDS011;2798;42.716;23.256;2023-05-10T04:39:01;9.60;;;4.20;;
5549;SDS011;2798;42.716;23.256;2023-05-10T04:41:27;6.43;;;3.57;;
5549;SDS011;2798;42.716;23.256;2023-05-10T04:43:53;3.87;;;3.40;;
5549;SDS011;2798;42.716;23.256;2023-05-10T04:46:18;10.23;;;3.73;;
5549;SDS011;2798;42.716;23.256;2023-05-10T04:48:43;6.00;;;3.70;;
5549;SDS011;2798;42.716;23.256;2023-05-10T04:51:09;5.50;;;3.67;;
5549;SDS011;2798;42.716;23.256;2023-05-10T04:53:34;4.30;;;3.23;;
5549;SDS011;2798;42.716;23.256;2023-05-10T04:55:59;4.93;;;3.70;;
5549;SDS011;2798;42.716;23.256;2023-05-10T04:58:24;5.67;;;3.80;;
5549;SDS011;2798;42.716;23.256;2023-05-10T05:00:50;4.30;;;3.60;;
5549;SDS011;2798;42.716;23.256;2023-05-10T05:03:15;17.43;;;5.70;;
5549;SDS011;2798;42.716;23.256;2023-05-10T05:05:40;11.63;;;4.50;;
5549;SDS011;2798;42.716;23.256;2023-05-10T05:08:05;15.00;;;4.90;;
5549;SDS011;2798;42.716;23.256;2023-05-10T05:10:31;6.43;;;4.00;;
5549;SDS011;2798;42.716;23.256;2023-05-10T05:12:56;4.70;;;3.87;;
5549;SDS011;2798;42.716;23.256;2023-05-10T05:15:21;5.53;;;3.47;;
5549;SDS011;2798;42.716;23.256;2023-05-10T05:17:47;6.83;;;3.57;;
5549;SDS011;2798;42.716;23.256;2023-05-10T05:20:12;6.90;;;3.87;;
5549;SDS011;2798;42.716;23.256;2023-05-10T05:22:38;8.60;;;6.13;;
5549;SDS011;2798;42.716;23.256;2023-05-10T05:25:03;13.87;;;4.53;;
5549;SDS011;2798;42.716;23.256;2023-05-10T05:27:29;15.67;;;4.77;;
5549;SDS011;2798;42.716;23.256;2023-05-10T05:29:57;12.60;;;4.20;;
5549;SDS011;2798;42.716;23.256;2023-05-10T05:32:23;6.97;;;4.37;;
5549;SDS011;2798;42.716;23.256;2023-05-10T05:34:49;8.30;;;4.20;;
5549;SDS011;2798;42.716;23.256;2023-05-10T05:37:15;10.43;;;4.77;;
5549;SDS011;2798;42.716;23.256;2023-05-10T05:39:40;10.70;;;3.90;;
5549;SDS011;2798;42.716;23.256;2023-05-10T05:42:05;6.20;;;4.20;;
5549;SDS011;2798;42.716;23.256;2023-05-10T05:44:31;3.93;;;3.60;;
5549;SDS011;2798;42.716;23.256;2023-05-10T05:46:56;4.13;;;3.77;;
5549;SDS011;2798;42.716;23.256;2023-05-10T05:49:21;5.30;;;4.67;;
5549;SDS011;2798;42.716;23.256;2023-05-10T05:51:47;6.07;;;3.80;;
5549;SDS011;2798;42.716;23.256;2023-05-10T05:54:14;5.63;;;4.40;;
5549;SDS011;2798;42.716;23.256;2023-05-10T05:56:39;5.00;;;4.43;;
5549;SDS011;2798;42.716;23.256;2023-05-10T05:59:04;5.53;;;4.40;;
5549;SDS011;2798;42.716;23.256;2023-05-10T06:01:30;6.37;;;4.40;;
5549;SDS011;2798;42.716;23.256;2023-05-10T06:03:55;4.90;;;4.40;;
5549;SDS011;2798;42.716;23.256;2023-05-10T06:06:20;7.50;;;4.33;;
5549;SDS011;2798;42.716;23.256;2023-05-10T06:08:46;5.63;;;4.47;;
5549;SDS011;2798;42.716;23.256;2023-05-10T06:11:11;5.30;;;4.40;;
5549;SDS011;2798;42.716;23.256;2023-05-10T06:13:36;4.47;;;4.07;;
5549;SDS011;2798;42.716;23.256;2023-05-10T06:16:02;6.57;;;4.57;;
5549;SDS011;2798;42.716;23.256;2023-05-10T06:18:27;6.07;;;4.80;;
5549;SDS011;2798;42.716;23.256;2023-05-10T06:20:52;5.10;;;4.60;;
5549;SDS011;2798;42.716;23.256;2023-05-10T06:23:18;4.83;;;4.30;;
5549;SDS011;2798;42.716;23.256;2023-05-10T06:25:43;7.10;;;4.70;;
5549;SDS011;2798;42.716;23.256;2023-05-10T06:28:08;5.63;;;4.80;;
5549;SDS011;2798;42.716;23.256;2023-05-10T06:30:35;6.87;;;4.00;;
5549;SDS011;2798;42.716;23.256;2023-05-10T06:33:01;5.70;;;4.57;;
5549;SDS011;2798;42.716;23.256;2023-05-10T06:35:26;5.73;;;4.17;;
5549;SDS011;2798;42.716;23.256;2023-05-10T06:37:51;7.17;;;4.47;;
5549;SDS011;2798;42.716;23.256;2023-05-10T06:40:16;10.30;;;4.90;;
5549;SDS011;2798;42.716;23.256;2023-05-10T06:42:42;10.17;;;4.90;;
5549;SDS011;2798;42.716;23.256;2023-05-10T06:45:07;8.83;;;4.53;;
5549;SDS011;2798;42.716;23.256;2023-05-10T06:47:33;5.47;;;4.43;;
5549;SDS011;2798;42.716;23.256;2023-05-10T06:49:58;5.00;;;4.50;;
5549;SDS011;2798;42.716;23.256;2023-05-10T06:52:24;5.33;;;4.40;;
5549;SDS011;2798;42.716;23.256;2023-05-10T06:54:49;8.23;;;4.70;;
5549;SDS011;2798;42.716;23.256;2023-05-10T06:57:14;7.77;;;4.40;;
5549;SDS011;2798;42.716;23.256;2023-05-10T06:59:40;14.83;;;4.77;;
5549;SDS011;2798;42.716;23.256;2023-05-10T07:02:05;8.00;;;5.33;;
5549;SDS011;2798;42.716;23.256;2023-05-10T07:04:31;5.27;;;4.60;;
5549;SDS011;2798;42.716;23.256;2023-05-10T07:06:56;7.03;;;4.57;;
5549;SDS011;2798;42.716;23.256;2023-05-10T07:09:22;6.27;;;4.50;;
5549;SDS011;2798;42.716;23.256;2023-05-10T07:11:49;4.73;;;4.30;;
5549;SDS011;2798;42.716;23.256;2023-05-10T07:14:14;4.80;;;4.33;;
5549;SDS011;2798;42.716;23.256;2023-05-10T07:16:40;5.77;;;4.57;;
5549;SDS011;2798;42.716;23.256;2023-05-10T07:19:05;5.80;;;5.10;;
5549;SDS011;2798;42.716;23.256;2023-05-10T07:21:31;5.13;;;4.43;;
5549;SDS011;2798;42.716;23.256;2023-05-10T07:23:56;6.57;;;5.00;;
5549;SDS011;2798;42.716;23.256;2023-05-10T07:26:21;5.33;;;4.17;;
5549;SDS011;2798;42.716;23.256;2023-05-10T07:28:47;4.10;;;3.70;;
5549;SDS011;2798;42.716;23.256;2023-05-10T07:31:12;7.33;;;4.90;;
5549;SDS011;2798;42.716;23.256;2023-05-10T07:33:37;7.40;;;4.00;;
5549;SDS011;2798;42.716;23.256;2023-05-10T07:36:02;7.83;;;4.70;;
5549;SDS011;2798;42.716;23.256;2023-05-10T07:38:28;6.57;;;4.37;;
5549;SDS011;2798;42.716;23.256;2023-05-10T07:40:53;6.10;;;5.00;;
5549;SDS011;2798;42.716;23.256;2023-05-10T07:43:18;4.50;;;4.10;;
5549;SDS011;2798;42.716;23.256;2023-05-10T07:45:43;5.00;;;4.37;;
5549;SDS011;2798;42.716;23.256;2023-05-10T07:48:09;6.00;;;4.40;;
5549;SDS011;2798;42.716;23.256;2023-05-10T07:50:34;5.40;;;4.47;;
5549;SDS011;2798;42.716;23.256;2023-05-10T07:52:59;6.63;;;5.00;;
5549;SDS011;2798;42.716;23.256;2023-05-10T07:55:25;8.10;;;5.80;;
5549;SDS011;2798;42.716;23.256;2023-05-10T07:57:51;5.27;;;4.77;;
5549;SDS011;2798;42.716;23.256;2023-05-10T08:00:17;7.63;;;5.43;;
5549;SDS011;2798;42.716;23.256;2023-05-10T08:02:42;5.57;;;4.73;;
5549;SDS011;2798;42.716;23.256;2023-05-10T08:05:07;6.67;;;4.80;;
5549;SDS011;2798;42.716;23.256;2023-05-10T08:07:33;6.40;;;5.80;;
5549;SDS011;2798;42.716;23.256;2023-05-10T08:09:58;12.07;;;5.33;;
5549;SDS011;2798;42.716;23.256;2023-05-10T08:12:23;5.93;;;5.33;;
5549;SDS011;2798;42.716;23.256;2023-05-10T08:14:49;7.83;;;5.43;;
5549;SDS011;2798;42.716;23.256;2023-05-10T08:17:14;6.30;;;5.50;;
5549;SDS011;2798;42.716;23.256;2023-05-10T08:19:40;5.60;;;5.10;;
5549;SDS011;2798;42.716;23.256;2023-05-10T08:22:05;5.40;;;4.90;;
5549;SDS011;2798;42.716;23.256;2023-05-10T08:24:30;6.10;;;5.30;;
5549;SDS011;2798;42.716;23.256;2023-05-10T08:26:55;6.40;;;5.13;;
5549;SDS011;2798;42.716;23.256;2023-05-10T08:29:21;5.90;;;4.90;;
5549;SDS011;2798;42.716;23.256;2023-05-10T08:31:46;6.90;;;6.20;;
5549;SDS011;2798;42.716;23.256;2023-05-10T08:34:11;6.00;;;5.50;;
5549;SDS011;2798;42.716;23.256;2023-05-10T08:36:36;6.50;;;5.57;;
5549;SDS011;2798;42.716;23.256;2023-05-10T08:39:02;7.13;;;6.03;;
5549;SDS011;2798;42.716;23.256;2023-05-10T08:41:27;5.43;;;4.93;;
5549;SDS011;2798;42.716;23.256;2023-05-10T08:43:53;9.73;;;5.23;;
5549;SDS011;2798;42.716;23.256;2023-05-10T08:46:19;5.90;;;5.40;;
5549;SDS011;2798;42.716;23.256;2023-05-10T08:48:44;5.93;;;5.33;;
5549;SDS011;2798;42.716;23.256;2023-05-10T08:51:13;6.67;;;4.97;;
5549;SDS011;2798;42.716;23.256;2023-05-10T08:53:38;8.40;;;5.83;;
5549;SDS011;2798;42.716;23.256;2023-05-10T08:56:04;6.43;;;5.53;;
5549;SDS011;2798;42.716;23.256;2023-05-10T08:58:29;5.50;;;5.00;;
5549;SDS011;2798;42.716;23.256;2023-05-10T09:00:55;5.43;;;4.90;;
5549;SDS011;2798;42.716;23.256;2023-05-10T09:03:21;8.37;;;5.30;;
5549;SDS011;2798;42.716;23.256;2023-05-10T09:05:47;5.60;;;5.10;;
5549;SDS011;2798;42.716;23.256;2023-05-10T09:08:13;6.90;;;5.23;;
5549;SDS011;2798;42.716;23.256;2023-05-10T09:10:39;5.37;;;4.80;;
5549;SDS011;2798;42.716;23.256;2023-05-10T09:13:05;4.60;;;4.20;;
5549;SDS011;2798;42.716;23.256;2023-05-10T09:15:30;7.67;;;5.37;;
5549;SDS011;2798;42.716;23.256;2023-05-10T09:17:55;5.43;;;4.93;;
5549;SDS011;2798;42.716;23.256;2023-05-10T09:20:22;6.70;;;4.87;;
5549;SDS011;2798;42.716;23.256;2023-05-10T09:22:48;5.47;;;4.97;;
5549;SDS011;2798;42.716;23.256;2023-05-10T09:25:14;6.67;;;5.43;;
5549;SDS011;2798;42.716;23.256;2023-05-10T09:27:40;6.80;;;4.97;;
5549;SDS011;2798;42.716;23.256;2023-05-10T09:30:06;4.83;;;4.33;;
5549;SDS011;2798;42.716;23.256;2023-05-10T09:32:42;5.17;;;4.67;;
5549;SDS011;2798;42.716;23.256;2023-05-10T09:35:08;6.50;;;5.33;;
5549;SDS011;2798;42.716;23.256;2023-05-10T09:37:34;5.63;;;4.83;;
5549;SDS011;2798;42.716;23.256;2023-05-10T09:39:59;8.67;;;5.50;;
5549;SDS011;2798;42.716;23.256;2023-05-10T09:42:24;5.60;;;5.10;;
5549;SDS011;2798;42.716;23.256;2023-05-10T09:44:50;5.90;;;5.30;;
5549;SDS011;2798;42.716;23.256;2023-05-10T09:47:18;6.20;;;5.00;;
5549;SDS011;2798;42.716;23.256;2023-05-10T09:49:50;7.00;;;5.40;;
5549;SDS011;2798;42.716;23.256;2023-05-10T09:52:16;5.83;;;5.03;;
5549;SDS011;2798;42.716;23.256;2023-05-10T09:54:44;7.03;;;5.30;;
5549;SDS011;2798;42.716;23.256;2023-05-10T09:57:18;8.63;;;5.30;;
5549;SDS011;2798;42.716;23.256;2023-05-10T09:59:43;5.87;;;4.33;;
5549;SDS011;2798;42.716;23.256;2023-05-10T10:02:09;13.03;;;6.07;;
5549;SDS011;2798;42.716;23.256;2023-05-10T10:04:38;5.40;;;4.90;;
5549;SDS011;2798;42.716;23.256;2023-05-10T10:07:04;6.60;;;5.10;;
5549;SDS011;2798;42.716;23.256;2023-05-10T10:09:29;6.70;;;5.30;;
5549;SDS011;2798;42.716;23.256;2023-05-10T10:11:55;5.57;;;4.90;;
5549;SDS011;2798;42.716;23.256;2023-05-10T10:14:21;6.60;;;5.53;;
5549;SDS011;2798;42.716;23.256;2023-05-10T10:16:48;6.20;;;5.60;;
5549;SDS011;2798;42.716;23.256;2023-05-10T10:19:14;7.90;;;5.40;;
5549;SDS011;2798;42.716;23.256;2023-05-10T10:21:39;5.97;;;5.30;;
5549;SDS011;2798;42.716;23.256;2023-05-10T10:24:05;5.30;;;4.50;;
5549;SDS011;2798;42.716;23.256;2023-05-10T10:26:32;5.33;;;4.83;;
5549;SDS011;2798;42.716;23.256;2023-05-10T10:32:19;4.67;;;4.27;;
5549;SDS011;2798;42.716;23.256;2023-05-10T10:34:41;5.90;;;4.83;;
5549;SDS011;2798;42.716;23.256;2023-05-10T10:37:06;6.30;;;4.90;;
5549;SDS011;2798;42.716;23.256;2023-05-10T10:39:32;5.03;;;4.50;;
5549;SDS011;2798;42.716;23.256;2023-05-10T10:41:57;6.63;;;4.60;;
5549;SDS011;2798;42.716;23.256;2023-05-10T10:44:24;6.40;;;4.90;;
5549;SDS011;2798;42.716;23.256;2023-05-10T10:49:24;6.80;;;4.70;;
5549;SDS011;2798;42.716;23.256;2023-05-10T10:54:34;4.60;;;4.20;;
5549;SDS011;2798;42.716;23.256;2023-05-10T10:57:12;5.50;;;4.77;;
5549;SDS011;2798;42.716;23.256;2023-05-10T10:59:41;4.90;;;4.40;;
5549;SDS011;2798;42.716;23.256;2023-05-10T11:02:08;4.80;;;4.40;;
5549;SDS011;2798;42.716;23.256;2023-05-10T11:04:52;6.23;;;5.30;;
5549;SDS011;2798;42.716;23.256;2023-05-10T11:07:17;5.70;;;4.47;;
5549;SDS011;2798;42.716;23.256;2023-05-10T11:09:43;5.33;;;4.83;;
5549;SDS011;2798;42.716;23.256;2023-05-10T11:12:08;6.20;;;4.23;;
5549;SDS011;2798;42.716;23.256;2023-05-10T11:14:33;4.33;;;3.93;;
5549;SDS011;2798;42.716;23.256;2023-05-10T11:16:59;4.53;;;4.00;;
5549;SDS011;2798;42.716;23.256;2023-05-10T11:19:27;9.30;;;4.50;;
5549;SDS011;2798;42.716;23.256;2023-05-10T11:24:30;5.20;;;3.93;;
5549;SDS011;2798;42.716;23.256;2023-05-10T11:26:55;4.77;;;4.00;;
5549;SDS011;2798;42.716;23.256;2023-05-10T11:29:21;8.97;;;3.97;;
5549;SDS011;2798;42.716;23.256;2023-05-10T11:31:46;4.40;;;3.50;;
5549;SDS011;2798;42.716;23.256;2023-05-10T11:34:22;4.53;;;4.13;;
5549;SDS011;2798;42.716;23.256;2023-05-10T11:36:50;3.93;;;3.63;;
5549;SDS011;2798;42.716;23.256;2023-05-10T11:39:16;5.80;;;4.00;;
5549;SDS011;2798;42.716;23.256;2023-05-10T11:41:41;6.57;;;3.93;;
5549;SDS011;2798;42.716;23.256;2023-05-10T11:44:06;5.20;;;4.10;;
5549;SDS011;2798;42.716;23.256;2023-05-10T11:46:34;3.93;;;3.60;;
5549;SDS011;2798;42.716;23.256;2023-05-10T11:48:59;3.80;;;3.50;;
5549;SDS011;2798;42.716;23.256;2023-05-10T11:51:26;7.10;;;3.77;;
5549;SDS011;2798;42.716;23.256;2023-05-10T11:53:55;4.10;;;3.77;;
5549;SDS011;2798;42.716;23.256;2023-05-10T11:56:20;8.03;;;4.00;;
5549;SDS011;2798;42.716;23.256;2023-05-10T11:58:51;5.83;;;3.73;;
5549;SDS011;2798;42.716;23.256;2023-05-10T12:01:16;3.70;;;3.40;;
5549;SDS011;2798;42.716;23.256;2023-05-10T12:03:42;5.00;;;3.73;;
5549;SDS011;2798;42.716;23.256;2023-05-10T12:06:07;4.70;;;3.93;;
5549;SDS011;2798;42.716;23.256;2023-05-10T12:08:32;3.40;;;3.10;;
5549;SDS011;2798;42.716;23.256;2023-05-10T12:11:05;3.83;;;3.40;;
5549;SDS011;2798;42.716;23.256;2023-05-10T12:13:31;4.17;;;3.77;;
5549;SDS011;2798;42.716;23.256;2023-05-10T12:15:59;7.60;;;4.23;;
5549;SDS011;2798;42.716;23.256;2023-05-10T12:18:25;4.60;;;4.13;;
5549;SDS011;2798;42.716;23.256;2023-05-10T12:20:54;5.70;;;4.20;;
5549;SDS011;2798;42.716;23.256;2023-05-10T12:23:19;6.07;;;4.77;;
5549;SDS011;2798;42.716;23.256;2023-05-10T12:25:45;5.77;;;3.97;;
5549;SDS011;2798;42.716;23.256;2023-05-10T12:28:10;4.80;;;4.00;;
5549;SDS011;2798;42.716;23.256;2023-05-10T12:30:36;6.10;;;4.10;;
5549;SDS011;2798;42.716;23.256;2023-05-10T12:35:31;4.73;;;4.30;;
5549;SDS011;2798;42.716;23.256;2023-05-10T12:37:56;4.47;;;4.07;;
5549;SDS011;2798;42.716;23.256;2023-05-10T12:40:22;6.10;;;4.20;;
5549;SDS011;2798;42.716;23.256;2023-05-10T12:42:47;8.20;;;4.30;;
5549;SDS011;2798;42.716;23.256;2023-05-10T12:45:13;7.40;;;4.20;;
5549;SDS011;2798;42.716;23.256;2023-05-10T12:47:38;5.13;;;4.43;;
5549;SDS011;2798;42.716;23.256;2023-05-10T12:50:04;6.57;;;4.10;;
5549;SDS011;2798;42.716;23.256;2023-05-10T12:52:30;9.93;;;4.53;;
5549;SDS011;2798;42.716;23.256;2023-05-10T12:54:57;5.37;;;4.37;;
5549;SDS011;2798;42.716;23.256;2023-05-10T12:57:22;5.87;;;4.30;;
5549;SDS011;2798;42.716;23.256;2023-05-10T12:59:47;5.10;;;4.10;;
5549;SDS011;2798;42.716;23.256;2023-05-10T13:02:12;5.77;;;4.63;;
5549;SDS011;2798;42.716;23.256;2023-05-10T13:04:39;4.87;;;4.40;;
5549;SDS011;2798;42.716;23.256;2023-05-10T13:07:07;8.90;;;4.23;;
5549;SDS011;2798;42.716;23.256;2023-05-10T13:09:33;7.60;;;4.37;;
5549;SDS011;2798;42.716;23.256;2023-05-10T13:11:58;7.87;;;4.90;;
5549;SDS011;2798;42.716;23.256;2023-05-10T13:14:23;9.33;;;5.00;;
5549;SDS011;2798;42.716;23.256;2023-05-10T13:16:49;4.97;;;4.47;;
5549;SDS011;2798;42.716;23.256;2023-05-10T13:19:16;9.93;;;4.80;;
5549;SDS011;2798;42.716;23.256;2023-05-10T13:21:41;6.10;;;4.50;;
5549;SDS011;2798;42.716;23.256;2023-05-10T13:24:07;7.20;;;4.97;;
5549;SDS011;2798;42.716;23.256;2023-05-10T13:26:32;5.57;;;3.80;;
5549;SDS011;2798;42.716;23.256;2023-05-10T13:28:58;7.83;;;4.70;;
5549;SDS011;2798;42.716;23.256;2023-05-10T13:31:23;8.20;;;4.80;;
5549;SDS011;2798;42.716;23.256;2023-05-10T13:33:48;4.87;;;4.43;;
5549;SDS011;2798;42.716;23.256;2023-05-10T13:36:13;8.17;;;4.77;;
5549;SDS011;2798;42.716;23.256;2023-05-10T13:38:39;7.40;;;4.33;;
5549;SDS011;2798;42.716;23.256;2023-05-10T13:41:04;7.03;;;4.47;;
5549;SDS011;2798;42.716;23.256;2023-05-10T13:43:29;6.70;;;4.40;;
5549;SDS011;2798;42.716;23.256;2023-05-10T13:45:55;6.03;;;4.47;;
5549;SDS011;2798;42.716;23.256;2023-05-10T13:48:20;5.73;;;4.20;;
5549;SDS011;2798;42.716;23.256;2023-05-10T13:50:46;5.80;;;4.63;;
5549;SDS011;2798;42.716;23.256;2023-05-10T13:53:11;8.80;;;4.60;;
5549;SDS011;2798;42.716;23.256;2023-05-10T13:55:36;5.10;;;4.23;;
5549;SDS011;2798;42.716;23.256;2023-05-10T13:58:02;7.57;;;4.10;;
5549;SDS011;2798;42.716;23.256;2023-05-10T14:00:27;7.17;;;4.40;;
5549;SDS011;2798;42.716;23.256;2023-05-10T14:02:53;5.97;;;4.33;;
5549;SDS011;2798;42.716;23.256;2023-05-10T14:05:18;6.90;;;4.30;;
5549;SDS011;2798;42.716;23.256;2023-05-10T14:07:44;5.83;;;4.57;;
5549;SDS011;2798;42.716;23.256;2023-05-10T14:10:09;5.37;;;4.00;;
5549;SDS011;2798;42.716;23.256;2023-05-10T14:12:34;4.80;;;4.40;;
5549;SDS011;2798;42.716;23.256;2023-05-10T14:15:00;5.50;;;3.53;;
5549;SDS011;2798;42.716;23.256;2023-05-10T14:17:25;5.50;;;4.07;;
5549;SDS011;2798;42.716;23.256;2023-05-10T14:19:51;12.03;;;4.70;;
5549;SDS011;2798;42.716;23.256;2023-05-10T14:22:17;4.60;;;4.10;;
5549;SDS011;2798;42.716;23.256;2023-05-10T14:24:43;4.67;;;4.27;;
5549;SDS011;2798;42.716;23.256;2023-05-10T14:27:11;5.23;;;4.40;;
5549;SDS011;2798;42.716;23.256;2023-05-10T14:29:37;7.80;;;4.63;;
5549;SDS011;2798;42.716;23.256;2023-05-10T14:32:02;3.83;;;3.50;;
5549;SDS011;2798;42.716;23.256;2023-05-10T14:34:27;5.10;;;4.50;;
5549;SDS011;2798;42.716;23.256;2023-05-10T14:36:53;6.27;;;4.03;;
5549;SDS011;2798;42.716;23.256;2023-05-10T14:39:18;5.40;;;4.60;;
5549;SDS011;2798;42.716;23.256;2023-05-10T14:41:43;6.43;;;4.40;;
5549;SDS011;2798;42.716;23.256;2023-05-10T14:44:10;5.20;;;4.40;;
5549;SDS011;2798;42.716;23.256;2023-05-10T14:46:35;4.50;;;4.10;;
5549;SDS011;2798;42.716;23.256;2023-05-10T14:49:00;6.33;;;4.37;;
5549;SDS011;2798;42.716;23.256;2023-05-10T14:51:26;5.37;;;3.83;;
5549;SDS011;2798;42.716;23.256;2023-05-10T14:53:51;8.00;;;4.40;;
5549;SDS011;2798;42.716;23.256;2023-05-10T14:56:16;4.60;;;4.20;;
5549;SDS011;2798;42.716;23.256;2023-05-10T14:58:41;8.87;;;4.50;;
5549;SDS011;2798;42.716;23.256;2023-05-10T15:01:07;5.23;;;3.80;;
5549;SDS011;2798;42.716;23.256;2023-05-10T15:03:32;6.87;;;5.23;;
5549;SDS011;2798;42.716;23.256;2023-05-10T15:05:57;4.67;;;4.20;;
5549;SDS011;2798;42.716;23.256;2023-05-10T15:08:23;7.00;;;4.73;;
5549;SDS011;2798;42.716;23.256;2023-05-10T15:10:49;4.73;;;4.23;;
5549;SDS011;2798;42.716;23.256;2023-05-10T15:13:15;6.00;;;4.10;;
5549;SDS011;2798;42.716;23.256;2023-05-10T15:15:40;8.00;;;4.70;;
5549;SDS011;2798;42.716;23.256;2023-05-10T15:18:05;7.27;;;5.10;;
5549;SDS011;2798;42.716;23.256;2023-05-10T15:20:31;5.90;;;4.70;;
5549;SDS011;2798;42.716;23.256;2023-05-10T15:22:56;7.10;;;4.80;;
5549;SDS011;2798;42.716;23.256;2023-05-10T15:25:22;4.70;;;4.20;;
5549;SDS011;2798;42.716;23.256;2023-05-10T15:27:48;7.53;;;4.80;;